createdAt,value
2023-03-06T00:02:42.264Z,-4.75
2023-03-06T00:06:44.000Z,-4.89
2023-03-06T00:10:46.043Z,-4.91
2023-03-06T00:14:48.031Z,-5.08
2023-03-06T00:18:49.953Z,-5.12
2023-03-06T00:22:52.071Z,-5.32
2023-03-06T00:26:54.107Z,-5.21
2023-03-06T00:30:56.185Z,-5.31
2023-03-06T00:34:58.153Z,-5.49
2023-03-06T00:39:00.282Z,-5.57
2023-03-06T00:43:02.165Z,-5.64
2023-03-06T00:47:04.886Z,-5.62
2023-03-06T00:51:07.202Z,-5.68
2023-03-06T00:55:11.160Z,-5.71
2023-03-06T00:59:12.788Z,-5.87
2023-03-06T01:03:14.828Z,-5.83
2023-03-06T01:07:17.028Z,-5.90
2023-03-06T01:11:18.977Z,-5.98
2023-03-06T01:15:21.692Z,-6.03
2023-03-06T01:19:23.881Z,-6.14
2023-03-06T01:23:25.900Z,-6.19
2023-03-06T01:27:30.143Z,-6.23
2023-03-06T01:31:32.312Z,-6.28
2023-03-06T01:35:34.517Z,-6.28
2023-03-06T01:39:36.559Z,-6.35
2023-03-06T01:43:41.621Z,-6.38
2023-03-06T01:47:44.809Z,-6.50
2023-03-06T01:51:51.958Z,-6.59
2023-03-06T01:55:55.200Z,-6.67
2023-03-06T02:00:07.090Z,-6.73
2023-03-06T02:04:16.361Z,-6.76
2023-03-06T02:08:21.527Z,-6.81
2023-03-06T02:12:23.939Z,-6.88
2023-03-06T02:16:29.466Z,-6.92
2023-03-06T02:20:46.075Z,-6.93
2023-03-06T02:25:04.337Z,-6.94
2023-03-06T02:29:09.019Z,-7.04
2023-03-06T02:33:15.707Z,-7.03
2023-03-06T02:37:18.190Z,-7.09
2023-03-06T02:41:20.645Z,-7.14
2023-03-06T02:45:35.591Z,-7.27
2023-03-06T02:49:37.623Z,-7.20
2023-03-06T02:53:40.658Z,-7.24
2023-03-06T02:57:42.797Z,-7.30
2023-03-06T03:01:45.026Z,-7.33
2023-03-06T03:05:47.077Z,-7.40
2023-03-06T03:09:56.703Z,-7.47
2023-03-06T03:13:59.051Z,-7.51
2023-03-06T03:18:03.283Z,-7.53
2023-03-06T03:22:05.863Z,-7.52
2023-03-06T03:26:14.340Z,-7.54
2023-03-06T03:30:19.967Z,-7.56
2023-03-06T03:34:22.478Z,-7.58
2023-03-06T03:38:24.555Z,-7.56
2023-03-06T03:42:26.631Z,-7.60
2023-03-06T03:46:29.672Z,-7.63
2023-03-06T03:50:33.286Z,-7.58
2023-03-06T03:54:36.126Z,-7.57
2023-03-06T03:58:38.230Z,-7.52
2023-03-06T04:02:40.306Z,-7.51
2023-03-06T04:06:50.967Z,-7.53
2023-03-06T04:10:55.183Z,-7.53
2023-03-06T04:14:59.173Z,-7.57
2023-03-06T04:19:01.292Z,-7.58
2023-03-06T04:23:03.832Z,-7.59
2023-03-06T04:27:07.193Z,-7.50
2023-03-06T04:31:12.199Z,-7.48
2023-03-06T04:35:14.235Z,-7.42
2023-03-06T04:39:26.842Z,-7.43
2023-03-06T04:43:29.665Z,-7.49
2023-03-06T04:47:31.668Z,-7.53
2023-03-06T04:51:36.806Z,-7.53
2023-03-06T04:55:38.770Z,-7.56
2023-03-06T04:59:40.772Z,-7.60
2023-03-06T05:03:42.735Z,-7.58
2023-03-06T05:07:44.979Z,-7.60
2023-03-06T05:11:47.022Z,-7.62
2023-03-06T05:15:48.958Z,-7.70
2023-03-06T05:19:50.990Z,-7.79
2023-03-06T05:23:53.075Z,-7.74
2023-03-06T05:27:55.052Z,-7.72
2023-03-06T05:31:57.414Z,-7.62
2023-03-06T05:35:59.879Z,-7.58
2023-03-06T05:40:06.059Z,-7.51
2023-03-06T05:44:08.860Z,-7.44
2023-03-06T05:48:13.321Z,-7.33
2023-03-06T05:52:17.390Z,-7.22
2023-03-06T05:56:19.418Z,-7.01
2023-03-06T06:00:22.439Z,-6.86
2023-03-06T06:04:26.161Z,-6.60
2023-03-06T06:08:28.064Z,-6.44
2023-03-06T06:12:30.284Z,-6.32
2023-03-06T06:16:32.251Z,-6.20
2023-03-06T06:20:35.493Z,-6.03
2023-03-06T06:24:37.542Z,-5.87
2023-03-06T06:28:39.645Z,-5.77
2023-03-06T06:32:41.691Z,-5.61
2023-03-06T06:36:44.158Z,-5.36
2023-03-06T06:41:04.281Z,-5.14
2023-03-06T06:45:10.056Z,-5.06
2023-03-06T06:49:13.097Z,-4.81
2023-03-06T06:53:15.017Z,-4.62
2023-03-06T06:57:17.068Z,-4.53
2023-03-06T07:01:19.408Z,-4.23
2023-03-06T07:05:22.207Z,-4.01
2023-03-06T07:09:24.615Z,-3.94
2023-03-06T07:13:26.628Z,-3.69
2023-03-06T07:17:28.660Z,-3.58
2023-03-06T07:21:30.768Z,-3.28
2023-03-06T07:25:32.761Z,-3.12
2023-03-06T07:29:34.794Z,-2.92
2023-03-06T07:33:37.354Z,-2.94
2023-03-06T07:37:39.323Z,-2.40
2023-03-06T07:41:41.286Z,-2.37
2023-03-06T07:45:43.397Z,-2.41
2023-03-06T07:49:45.376Z,-2.26
2023-03-06T07:53:48.792Z,-2.18
2023-03-06T07:57:51.645Z,-2.02
2023-03-06T08:01:55.350Z,-1.86
2023-03-06T08:06:11.085Z,-1.68
2023-03-06T08:10:15.346Z,-1.39
2023-03-06T08:14:17.515Z,-1.31
2023-03-06T08:18:19.483Z,-1.32
2023-03-06T08:22:21.497Z,-1.10
2023-03-06T08:26:27.113Z,-0.70
2023-03-06T08:30:30.369Z,-0.46
2023-03-06T08:34:32.382Z,-0.27
2023-03-06T08:38:34.337Z,-0.31
2023-03-06T08:42:36.424Z,0.22
2023-03-06T08:46:38.859Z,0.06
2023-03-06T08:50:41.027Z,0.11
2023-03-06T08:54:44.188Z,0.49
2023-03-06T08:58:46.599Z,0.48
2023-03-06T09:02:48.564Z,0.57
2023-03-06T09:06:50.804Z,0.79
2023-03-06T09:10:52.810Z,0.89
2023-03-06T09:14:54.814Z,1.04
2023-03-06T09:18:57.874Z,1.11
2023-03-06T09:22:59.880Z,1.38
2023-03-06T09:27:02.083Z,1.11
2023-03-06T09:31:17.731Z,1.21
2023-03-06T09:35:19.948Z,1.17
2023-03-06T09:39:22.362Z,1.03
2023-03-06T09:43:32.618Z,1.29
2023-03-06T09:48:03.513Z,1.60
2023-03-06T09:52:30.013Z,1.34
2023-03-06T09:56:34.661Z,1.46
2023-03-06T10:00:57.616Z,1.35
2023-03-06T10:05:04.154Z,1.36
2023-03-06T10:09:14.829Z,1.38
2023-03-06T10:13:25.188Z,1.26
2023-03-06T10:17:35.095Z,1.06
2023-03-06T10:22:00.204Z,1.15
2023-03-06T10:26:08.060Z,1.34
2023-03-06T10:30:26.601Z,1.43
2023-03-06T10:34:33.238Z,1.31
2023-03-06T10:38:37.711Z,1.14
2023-03-06T10:42:39.676Z,1.20
2023-03-06T10:46:46.804Z,1.36
2023-03-06T10:50:49.371Z,0.89
2023-03-06T10:54:51.424Z,1.10
2023-03-06T10:59:06.868Z,0.55
2023-03-06T11:03:20.029Z,0.27
2023-03-06T11:07:29.143Z,0.34
2023-03-06T11:11:37.515Z,0.45
2023-03-06T11:15:40.860Z,0.38
2023-03-06T11:19:43.048Z,0.63
2023-03-06T11:23:47.413Z,0.57
2023-03-06T11:28:00.384Z,0.94
2023-03-06T11:32:09.315Z,0.97
2023-03-06T11:36:34.010Z,0.70
2023-03-06T11:40:53.132Z,0.48
2023-03-06T11:45:34.652Z,0.41
2023-03-06T11:49:51.254Z,0.56
2023-03-06T11:53:54.977Z,0.42
2023-03-06T11:58:35.195Z,0.40
2023-03-06T12:02:45.837Z,0.54
2023-03-06T12:07:09.522Z,0.63
2023-03-06T12:11:24.265Z,0.60
2023-03-06T12:15:55.946Z,0.44
2023-03-06T12:20:36.289Z,0.28
2023-03-06T12:24:55.431Z,0.31
2023-03-06T12:29:07.065Z,0.32
2023-03-06T12:33:19.941Z,0.19
2023-03-06T12:37:35.913Z,0.03
2023-03-06T12:42:22.676Z,-0.07
2023-03-06T12:46:27.987Z,0.07
2023-03-06T12:50:31.222Z,-0.03
2023-03-06T12:54:40.387Z,-0.20
2023-03-06T12:58:53.551Z,0.01
2023-03-06T13:03:12.749Z,0.13
2023-03-06T13:07:57.061Z,-0.08
2023-03-06T13:12:19.362Z,0.10
2023-03-06T13:16:32.638Z,0.21
2023-03-06T13:20:43.859Z,0.20
2023-03-06T13:24:45.862Z,0.22
2023-03-06T13:28:50.363Z,0.29
2023-03-06T13:32:53.190Z,0.06
2023-03-06T13:37:24.883Z,0.13
2023-03-06T13:41:54.067Z,0.23
2023-03-06T13:45:56.143Z,0.07
2023-03-06T13:49:59.118Z,0.02
2023-03-06T13:54:19.210Z,0.12
2023-03-06T13:58:52.950Z,-0.08
2023-03-06T14:03:10.424Z,-0.22
2023-03-06T14:07:18.247Z,-0.01
2023-03-06T14:11:21.509Z,0.14
2023-03-06T14:15:36.423Z,0.11
2023-03-06T14:19:38.877Z,0.20
2023-03-06T14:23:43.428Z,0.20
2023-03-06T14:27:51.631Z,0.15
2023-03-06T14:31:55.201Z,0.24
2023-03-06T14:36:01.755Z,0.30
2023-03-06T14:40:10.876Z,0.29
2023-03-06T14:44:20.506Z,0.19
2023-03-06T14:48:24.581Z,0.20
2023-03-06T14:52:26.574Z,0.32
2023-03-06T14:56:30.313Z,0.21
2023-03-06T15:00:41.557Z,0.20
2023-03-06T15:04:58.294Z,0.16
2023-03-06T15:09:13.754Z,0.15
2023-03-06T15:13:26.020Z,0.00
2023-03-06T15:17:29.412Z,0.04
2023-03-06T15:21:36.542Z,0.06
2023-03-06T15:25:38.744Z,0.03
2023-03-06T15:29:40.747Z,0.25
2023-03-06T15:33:42.813Z,0.17
2023-03-06T15:37:44.955Z,0.17
2023-03-06T15:41:47.581Z,0.23
2023-03-06T15:45:49.682Z,0.19
2023-03-06T15:49:53.185Z,0.27
2023-03-06T15:54:09.683Z,0.24
2023-03-06T15:58:17.194Z,0.18
2023-03-06T16:02:24.322Z,0.25
2023-03-06T16:06:26.350Z,0.20
2023-03-06T16:10:30.401Z,0.17
2023-03-06T16:14:32.503Z,0.19
2023-03-06T16:18:34.480Z,0.21
2023-03-06T16:22:36.424Z,0.22
2023-03-06T16:26:38.520Z,0.23
2023-03-06T16:30:41.426Z,0.31
2023-03-06T16:34:43.409Z,0.23
2023-03-06T16:38:45.420Z,0.16
2023-03-06T16:42:48.591Z,0.25
2023-03-06T16:46:50.819Z,0.26
2023-03-06T16:50:52.790Z,0.11
2023-03-06T16:54:54.758Z,0.08
2023-03-06T16:58:56.693Z,0.20
2023-03-06T17:02:59.585Z,0.28
2023-03-06T17:07:01.573Z,0.32
2023-03-06T17:11:05.901Z,0.30
2023-03-06T17:15:08.915Z,0.26
2023-03-06T17:19:15.168Z,0.26
2023-03-06T17:23:18.772Z,0.29
2023-03-06T17:27:22.452Z,0.18
2023-03-06T17:31:26.805Z,0.24
2023-03-06T17:35:29.078Z,0.26
2023-03-06T17:39:38.840Z,0.27
2023-03-06T17:43:41.412Z,0.30
2023-03-06T17:47:43.454Z,0.27
2023-03-06T17:51:45.581Z,0.21
2023-03-06T17:55:47.747Z,0.20
2023-03-06T17:59:49.897Z,0.16
2023-03-06T18:03:52.245Z,0.17
2023-03-06T18:07:54.775Z,0.16
2023-03-06T18:11:56.958Z,0.13
2023-03-06T18:16:00.199Z,0.16
2023-03-06T18:20:02.513Z,0.00
2023-03-06T18:24:04.793Z,-0.06
2023-03-06T18:28:07.280Z,-0.01
2023-03-06T18:32:10.796Z,-0.05
2023-03-06T18:36:12.588Z,-0.04
2023-03-06T18:40:15.945Z,-0.08
2023-03-06T18:44:18.966Z,-0.06
2023-03-06T18:48:21.626Z,0.04
2023-03-06T18:52:23.950Z,0.01
2023-03-06T18:56:26.463Z,0.03
2023-03-06T19:00:28.413Z,0.04
2023-03-06T19:04:30.684Z,0.01
2023-03-06T19:08:33.303Z,0.10
2023-03-06T19:12:35.624Z,0.13
2023-03-06T19:16:37.859Z,-0.01
2023-03-06T19:20:40.270Z,-0.02
2023-03-06T19:24:41.965Z,-0.05
2023-03-06T19:28:45.223Z,-0.01
2023-03-06T19:32:47.355Z,-0.09
2023-03-06T19:36:50.271Z,-0.14
2023-03-06T19:40:52.243Z,-0.13
2023-03-06T19:44:54.388Z,-0.08
2023-03-06T19:49:01.303Z,-0.07
2023-03-06T19:53:04.551Z,-0.12
2023-03-06T19:57:07.029Z,-0.05
2023-03-06T20:01:12.538Z,-0.10
2023-03-06T20:05:14.660Z,-0.15
2023-03-06T20:09:16.843Z,-0.13
2023-03-06T20:13:18.846Z,-0.08
2023-03-06T20:17:21.084Z,-0.11
2023-03-06T20:21:23.968Z,-0.09
2023-03-06T20:25:26.501Z,-0.14
2023-03-06T20:29:28.625Z,-0.14
2023-03-06T20:33:30.603Z,-0.13
2023-03-06T20:37:32.678Z,-0.19
2023-03-06T20:41:35.199Z,-0.05
2023-03-06T20:45:37.240Z,-0.16
2023-03-06T20:49:39.209Z,-0.22
2023-03-06T20:53:41.190Z,-0.12
2023-03-06T20:57:43.170Z,-0.19
2023-03-06T21:01:45.984Z,-0.26
2023-03-06T21:05:48.616Z,-0.21
2023-03-06T21:09:52.164Z,-0.28
2023-03-06T21:13:54.680Z,-0.29
2023-03-06T21:17:57.206Z,-0.22
2023-03-06T21:21:59.398Z,-0.34
2023-03-06T21:26:01.563Z,-0.26
2023-03-06T21:30:04.183Z,-0.19
2023-03-06T21:34:06.437Z,-0.23
2023-03-06T21:38:08.890Z,-0.34
2023-03-06T21:42:11.090Z,-0.39
2023-03-06T21:46:13.697Z,-0.39
2023-03-06T21:50:15.834Z,-0.37
2023-03-06T21:54:17.784Z,-0.45
2023-03-06T21:58:19.738Z,-0.34
2023-03-06T22:02:22.053Z,-0.33
2023-03-06T22:06:26.615Z,-0.32
2023-03-06T22:10:28.609Z,-0.26
2023-03-06T22:14:30.552Z,-0.32
2023-03-06T22:18:33.417Z,-0.34
2023-03-06T22:22:35.450Z,-0.29
2023-03-06T22:26:37.393Z,-0.31
2023-03-06T22:30:39.311Z,-0.22
2023-03-06T22:34:41.463Z,-0.31
2023-03-06T22:38:45.210Z,-0.28
2023-03-06T22:42:47.240Z,-0.29
2023-03-06T22:46:50.150Z,-0.29
2023-03-06T22:50:52.102Z,-0.22
2023-03-06T22:54:54.059Z,-0.20
2023-03-06T22:58:57.649Z,-0.17
2023-03-06T23:02:59.718Z,-0.25
2023-03-06T23:07:01.985Z,-0.12
2023-03-06T23:11:09.958Z,-0.15
2023-03-06T23:15:31.276Z,-0.16
2023-03-06T23:19:52.067Z,-0.26
2023-03-06T23:24:12.310Z,-0.21
2023-03-06T23:28:15.008Z,-0.27
2023-03-06T23:32:17.001Z,-0.36
2023-03-06T23:36:19.356Z,-0.33
2023-03-06T23:40:21.312Z,-0.53
2023-03-06T23:44:23.619Z,-0.64
2023-03-06T23:48:26.693Z,-0.72
2023-03-06T23:52:28.654Z,-0.69
2023-03-06T23:56:30.642Z,-0.79
